Accueil
METAR-TAF:

METAR-TAF

Aéroports :

Siegen, Allemagne

latitude: 50-42-28N, longitude: 008-04-59E, altitude: 602 m

Observation

Le bulletin a été fait il y a 2 heures et 36 minutes, à 18:50 UTC
Vent 3 kt de nord-ouest
Température 3°C
Humidité 65%
Pression 1011 hPa
Visibilité 10 km ou plus
pas de nuages en-dessous de 1500 mètres et pas de cumulonimbus.

METAR: EDGS 261850Z 32003KT CAVOK 03/M03 Q1011

Heure: 23:26 (21:26 UTC)

Prévision

Le bulletin a été fait il y a 4 heures et 26 minutes, à 17:00 UTC
Prévision valable du 26 à 18 UTC au 27 à 03 UTC
Vent 5 kt de nord-ouest
Visibilité 10 km ou plus
Nuages épars à une hauteur de 4500 ft

TAF: EDGS 261700Z 2618/2703 32005KT 9999 SCT045

Observations et prévisions météorologiques de plus de 4000 aéroports (messages METAR et TAF).

Les stations disponibles sont représentées par des disques jaunes et rouges sur la carte.

Passer la souris dessus pour voir le nom de la station.

Cliquer dessus pour voir les observations et prévisions météorologiques.

Pour changer de carte: cliquez sur les boutons verts avec une croix noire pour zoomer, sur le bouton vert avec un tiret pour effectuer un zoom arrière, ou sur les flèches vertes pour les cartes adjacentes.


METAR-TAF: